Weather History for KOXI - January, 2013

Change the Weather History Date:

Sunday, January 27, 2013

  Actual Average (KVPZ) Record (KVPZ)
Temperature  
Mean Temperature 26 °F 24 °F  
Max Temperature 34 °F 31 °F 59 °F (2002)
Min Temperature 18 °F 16 °F -11 °F (2014)
Degree Days  
Heating Degree Days 39 41  
Month to date heating degree days 1122  
Since 1 July heating degree days 3524  
Cooling Degree Days 0 0  
Month to date cooling degree days 0  
Year to date cooling degree days 0  
Moisture  
Dew Point 23 °F    
Average Humidity 83    
Maximum Humidity 99    
Minimum Humidity 71    
Precipitation  
Precipitation 0.00 in 0.06 in 0.04 in (2013)
Month to date precipitation 1.53  
Year to date precipitation 1.53  
Sea Level Pressure  
Sea Level Pressure 30.24 in    
Wind  
Wind Speed 10 mph (SE)    
Max Wind Speed 22 mph    
Max Gust Speed 29 mph    
Visibility 8 miles    
Events      
T = Trace of Precipitation, MM = Missing Value Source: NWS Daily Summary

Daily Weather History Graph

Daily Weather History Graph

Search for Another Location

Airport or City:

Trip Planner

Search our weather history database for the weather conditions in past years. The results will help you decide how hot, cold, wet, or windy it might be!

Date:

Astronomy

Jan. 27, 2013 Rise Set
Actual Time 7:02 AM CST 4:57 PM CST
Civil Twilight 6:32 AM CST 5:26 PM CST
Nautical Twilight 5:59 AM CST 6:00 PM CST
Astronomical Twilight 5:26 AM CST 6:32 PM CST
Moon 5:52 PM CST (1/27) 6:54 AM CST (1/27)
Length of Visible Light 10h 53m
Length of Day
9h 54m
Full, 100% of the Moon is Illuminated
Jan 27
Full
Feb 3
Last Quarter
Feb 10
New
Feb 17
First Quarter
Feb 25
Full

Hourly Weather History & Observations

Time (CST) Temp. Windchill Dew Point Humidity Pressure Visibility Wind Dir Wind Speed Gust Speed Precip Events Conditions
12:15 AM 23.9 °F 16.8 °F 19.6 °F 84% 30.39 in 10.0 mi SE 5.8 mph - N/A   Scattered Clouds
12:35 AM 23.9 °F 16.8 °F 19.4 °F 83% 30.38 in 10.0 mi SSE 5.8 mph - N/A   Scattered Clouds
12:55 AM 23.9 °F 15.8 °F 19.2 °F 82% 30.38 in 10.0 mi SSE 6.9 mph - N/A   Clear
1:15 AM 23.9 °F 15.8 °F 18.7 °F 80% 30.38 in 10.0 mi SSE 6.9 mph - N/A   Clear
1:35 AM 23.5 °F 16.4 °F 18.5 °F 81% 30.40 in 10.0 mi SSE 5.8 mph - N/A   Clear
1:55 AM 22.5 °F 15.1 °F 17.4 °F 81% 30.40 in 10.0 mi SE 5.8 mph - N/A   Clear
2:15 AM 21.2 °F 13.6 °F 16.7 °F 83% 30.40 in 10.0 mi SSE 5.8 mph - N/A   Scattered Clouds
2:35 AM 20.5 °F 10.8 °F 16.2 °F 83% 30.39 in 10.0 mi SSE 8.1 mph - N/A   Scattered Clouds
3:15 AM 21.0 °F 12.4 °F 16.2 °F 81% 30.39 in 10.0 mi SSE 6.9 mph - N/A   Clear
3:35 AM 20.5 °F 11.7 °F 15.6 °F 81% 30.38 in 10.0 mi SSE 6.9 mph - N/A   Clear
3:55 AM 19.8 °F 10.8 °F 15.1 °F 82% 30.38 in 10.0 mi SSE 6.9 mph - N/A   Clear
4:15 AM 18.9 °F 10.8 °F 14.5 °F 83% 30.38 in 10.0 mi SE 5.8 mph - N/A   Clear
4:35 AM 18.9 °F 9.8 °F 14.5 °F 83% 30.37 in 10.0 mi ESE 6.9 mph - N/A   Clear
4:55 AM 19.2 °F 10.2 °F 14.7 °F 83% 30.37 in 10.0 mi SE 6.9 mph - N/A   Clear
5:15 AM 19.9 °F 11.1 °F 15.4 °F 83% 30.37 in 10.0 mi SE 6.9 mph - N/A   Clear
5:35 AM 20.8 °F 11.2 °F 16.2 °F 82% 30.36 in 10.0 mi SE 8.1 mph - N/A   Clear
6:15 AM 21.7 °F 10.8 °F 16.7 °F 81% 30.36 in 10.0 mi SE 10.4 mph - N/A   Clear
6:35 AM 22.1 °F 10.0 °F 16.7 °F 80% 30.36 in 10.0 mi SSE 12.7 mph - N/A   Clear
6:55 AM 22.6 °F 11.3 °F 17.1 °F 79% 30.36 in 10.0 mi SSE 11.5 mph - N/A   Clear
7:15 AM 22.6 °F 10.7 °F 17.2 °F 80% 30.36 in 10.0 mi SSE 12.7 mph - N/A   Clear
7:35 AM 23.0 °F 10.6 °F 17.4 °F 79% 30.37 in 10.0 mi SSE 13.8 mph - N/A   Clear
7:55 AM 23.0 °F 11.1 °F 17.4 °F 79% 30.35 in 10.0 mi SSE 12.7 mph - N/A   Clear
8:15 AM 23.5 °F 11.3 °F 17.8 °F 79% 30.35 in 7.0 mi SSE 13.8 mph - N/A   Clear
8:35 AM 23.9 °F 11.2 °F 18.1 °F 79% 30.36 in 7.0 mi SSE 15.0 mph - N/A   Mostly Cloudy
8:55 AM 24.3 °F 13.9 °F 18.5 °F 79% 30.36 in 7.0 mi SSE 10.4 mph - N/A   Scattered Clouds
9:15 AM 24.6 °F 13.8 °F 18.9 °F 79% 30.36 in 7.0 mi SE 11.5 mph - N/A   Mostly Cloudy
9:35 AM 25.0 °F 14.8 °F 19.0 °F 78% 30.36 in 7.0 mi SSE 10.4 mph - N/A   Overcast
9:55 AM 25.5 °F 14.3 °F 19.4 °F 78% 30.37 in 7.0 mi SSE 12.7 mph - N/A   Overcast
10:15 AM 25.9 °F 16.0 °F 19.6 °F 77% 30.37 in 10.0 mi SSE 10.4 mph - N/A   Overcast
10:35 AM 26.6 °F 16.8 °F 20.1 °F 77% 30.37 in 7.0 mi SSE 10.4 mph - N/A   Mostly Cloudy
10:55 AM 27.0 °F 17.3 °F 20.3 °F 76% 30.35 in 10.0 mi SE 10.4 mph - N/A   Mostly Cloudy
11:15 AM 27.5 °F 18.6 °F 20.8 °F 76% 30.35 in 10.0 mi SE 9.2 mph - N/A   Overcast
11:35 AM 28.2 °F 18.9 °F 21.2 °F 75% 30.33 in 10.0 mi SE 10.4 mph - N/A   Overcast
11:55 AM 28.6 °F 18.7 °F 21.2 °F 74% 30.32 in 10.0 mi SE 11.5 mph - N/A   Overcast
12:15 PM 29.3 °F 21.5 °F 21.4 °F 72% 30.29 in 10.0 mi ESE 8.1 mph 11.5 mph N/A   Overcast
12:35 PM 29.7 °F 20.7 °F 22.1 °F 73% 30.26 in 10.0 mi SE 10.4 mph - N/A   Overcast
12:55 PM 29.5 °F 18.8 °F 21.9 °F 73% 30.24 in 10.0 mi SE 13.8 mph - N/A   Overcast
1:15 PM 29.8 °F 19.8 °F 22.3 °F 73% 30.23 in 10.0 mi SE 12.7 mph - N/A   Overcast
1:35 PM 30.2 °F 19.8 °F 22.5 °F 73% 30.22 in 10.0 mi SE 13.8 mph - N/A   Overcast
1:55 PM 30.6 °F 23.1 °F 22.3 °F 71% 30.22 in 10.0 mi ESE 8.1 mph - N/A   Overcast
2:15 PM 30.9 °F 22.2 °F 22.6 °F 71% 30.20 in 10.0 mi ESE 10.4 mph - N/A   Overcast
2:35 PM 31.1 °F 22.4 °F 23.2 °F 72% 30.19 in 10.0 mi ESE 10.4 mph - N/A   Overcast
2:55 PM 31.5 °F 22.9 °F 23.0 °F 71% 30.19 in 10.0 mi SE 10.4 mph - N/A   Overcast
3:15 PM 31.8 °F 22.3 °F 23.5 °F 71% 30.18 in 10.0 mi SE 12.7 mph 16.1 mph N/A   Overcast
3:35 PM 32.0 °F 24.8 °F 23.7 °F 71% 30.18 in 10.0 mi ESE 8.1 mph - N/A   Overcast
3:55 PM 32.0 °F 24.8 °F 23.9 °F 72% 30.19 in 5.0 mi ESE 8.1 mph - N/A   Overcast
4:15 PM 32.0 °F 23.0 °F 25.0 °F 75% 30.17 in 3.0 mi ESE 11.5 mph - N/A   Overcast
4:35 PM 31.8 °F 22.8 °F 25.7 °F 78% 30.18 in 7.0 mi SE 11.5 mph - N/A   Overcast
4:55 PM 31.8 °F 22.8 °F 26.1 °F 79% 30.18 in 5.0 mi ESE 11.5 mph - N/A   Overcast
5:15 PM 31.8 °F 23.3 °F 27.1 °F 83% 30.18 in 4.0 mi SE 10.4 mph - N/A   Overcast
5:35 PM 31.6 °F 23.1 °F 28.0 °F 87% 30.18 in 4.0 mi SE 10.4 mph - N/A   Overcast
5:55 PM 31.6 °F 21.2 °F 28.8 °F 89% 30.15 in 5.0 mi SE 15.0 mph - N/A   Overcast
6:15 PM 31.8 °F 21.4 °F 29.1 °F 90% 30.13 in 4.0 mi SE 15.0 mph - N/A   Overcast
6:35 PM 32.0 °F 21.6 °F 29.7 °F 91% 30.12 in 5.0 mi ESE 15.0 mph - N/A   Overcast
6:55 PM 32.0 °F 21.6 °F 30.0 °F 92% 30.10 in 7.0 mi SE 15.0 mph 20.7 mph N/A   Overcast
7:15 PM 32.0 °F 20.8 °F 30.2 °F 93% 30.08 in 7.0 mi SE 17.3 mph 24.2 mph N/A   Overcast
7:35 PM 32.2 °F 21.4 °F 30.6 °F 94% 30.07 in 7.0 mi SE 16.1 mph 28.8 mph N/A   Overcast
7:55 PM 32.4 °F 21.3 °F 30.7 °F 94% 30.05 in 7.0 mi SSE 17.3 mph - N/A   Overcast
8:15 PM 32.5 °F 20.8 °F 30.9 °F 94% 30.03 in 7.0 mi SSE 19.6 mph 24.2 mph N/A   Overcast
8:35 PM 32.9 °F 23.7 °F 31.3 °F 94% 30.04 in 7.0 mi SSE 12.7 mph 20.7 mph N/A   Overcast
8:55 PM 33.1 °F 23.0 °F 31.6 °F 94% 30.04 in 7.0 mi SSE 15.0 mph 20.7 mph N/A   Overcast
9:15 PM 33.1 °F 21.2 °F 32.0 °F 96% 30.02 in 4.0 mi SSE 20.7 mph 25.3 mph N/A   Overcast
9:35 PM 32.9 °F 20.7 °F 32.2 °F 97% 30.00 in 5.0 mi SSE 21.9 mph 26.5 mph N/A   Overcast
9:55 PM 33.1 °F 21.2 °F 32.5 °F 98% 29.98 in 5.0 mi SSE 20.7 mph 25.3 mph N/A   Overcast
10:15 PM 33.3 °F 21.8 °F 32.9 °F 99% 29.98 in 7.0 mi SSE 19.6 mph 26.5 mph N/A   Overcast
10:35 PM 33.8 °F 23.9 °F 33.1 °F 97% 29.99 in 7.0 mi SSE 15.0 mph 23.0 mph N/A   Overcast
10:55 PM 34.2 °F 25.2 °F 33.8 °F 99% 30.01 in 7.0 mi SSE 12.7 mph - N/A   Overcast
11:15 PM 34.7 °F 27.5 °F 34.2 °F 98% 30.01 in 5.0 mi South 9.2 mph 17.3 mph N/A   Overcast
11:35 PM 34.7 °F 26.9 °F 34.3 °F 99% 29.99 in 4.0 mi South 10.4 mph - N/A   Overcast
11:55 PM 34.7 °F 28.1 °F 34.3 °F 99% 30.00 in 2.5 mi South 8.1 mph - N/A   Overcast